sensor_id;sensor_type;location;lat;lon;timestamp;temperature;humidity
7212;DHT22;3647;48.792;9.802;2022-11-21T06:00:08;5.20;99.90
7212;DHT22;3647;48.792;9.802;2022-11-21T06:02:34;5.20;99.90
7212;DHT22;3647;48.792;9.802;2022-11-21T06:05:19;5.10;99.90
7212;DHT22;3647;48.792;9.802;2022-11-21T06:07:46;5.20;99.90
7212;DHT22;3647;48.792;9.802;2022-11-21T06:10:12;5.10;99.90
7212;DHT22;3647;48.792;9.802;2022-11-21T06:12:39;5.70;99.90
7212;DHT22;3647;48.792;9.802;2022-11-21T06:15:08;5.20;99.90
7212;DHT22;3647;48.792;9.802;2022-11-21T06:17:35;5.10;99.90
7212;DHT22;3647;48.792;9.802;2022-11-21T06:20:02;5.20;99.90
7212;DHT22;3647;48.792;9.802;2022-11-21T06:22:29;5.10;99.90
7212;DHT22;3647;48.792;9.802;2022-11-21T06:24:56;5.10;99.90
7212;DHT22;3647;48.792;9.802;2022-11-21T06:27:22;5.10;99.90
7212;DHT22;3647;48.792;9.802;2022-11-21T06:29:49;5.20;99.90
7212;DHT22;3647;48.792;9.802;2022-11-21T06:32:17;5.10;99.90
7212;DHT22;3647;48.792;9.802;2022-11-21T06:34:44;5.90;99.90
7212;DHT22;3647;48.792;9.802;2022-11-21T06:37:11;5.10;99.90
7212;DHT22;3647;48.792;9.802;2022-11-21T06:39:38;6.10;99.90
7212;DHT22;3647;48.792;9.802;2022-11-21T06:42:05;5.10;99.90
7212;DHT22;3647;48.792;9.802;2022-11-21T06:44:31;5.10;99.90
7212;DHT22;3647;48.792;9.802;2022-11-21T06:46:58;5.10;99.90
7212;DHT22;3647;48.792;9.802;2022-11-21T06:49:26;5.10;99.90
7212;DHT22;3647;48.792;9.802;2022-11-21T08:04:25;5.40;99.90
7212;DHT22;3647;48.792;9.802;2022-11-21T08:06:52;5.40;99.90
7212;DHT22;3647;48.792;9.802;2022-11-21T08:09:18;5.60;99.90
7212;DHT22;3647;48.792;9.802;2022-11-21T08:11:45;5.50;99.90
7212;DHT22;3647;48.792;9.802;2022-11-21T08:14:12;5.50;99.90
7212;DHT22;3647;48.792;9.802;2022-11-21T08:16:39;5.50;99.90
7212;DHT22;3647;48.792;9.802;2022-11-21T08:19:05;5.60;99.90
7212;DHT22;3647;48.792;9.802;2022-11-21T08:21:34;5.70;99.90
7212;DHT22;3647;48.792;9.802;2022-11-21T08:24:01;5.70;99.90
7212;DHT22;3647;48.792;9.802;2022-11-21T08:26:27;5.80;99.90
7212;DHT22;3647;48.792;9.802;2022-11-21T08:28:54;5.80;99.90
7212;DHT22;3647;48.792;9.802;2022-11-21T08:31:21;5.80;99.90
7212;DHT22;3647;48.792;9.802;2022-11-21T08:33:48;5.70;99.90
7212;DHT22;3647;48.792;9.802;2022-11-21T08:36:14;5.80;99.90
7212;DHT22;3647;48.792;9.802;2022-11-21T08:38:42;5.80;99.90
7212;DHT22;3647;48.792;9.802;2022-11-21T08:41:11;5.90;99.90
7212;DHT22;3647;48.792;9.802;2022-11-21T08:43:55;5.80;99.90
7212;DHT22;3647;48.792;9.802;2022-11-21T08:46:22;5.90;99.90
7212;DHT22;3647;48.792;9.802;2022-11-21T08:48:51;7.00;99.90
7212;DHT22;3647;48.792;9.802;2022-11-21T08:51:18;6.30;99.90
7212;DHT22;3647;48.792;9.802;2022-11-21T08:53:47;6.00;99.90
7212;DHT22;3647;48.792;9.802;2022-11-21T08:56:14;6.10;99.90
7212;DHT22;3647;48.792;9.802;2022-11-21T08:58:40;6.20;99.90
7212;DHT22;3647;48.792;9.802;2022-11-21T09:01:08;6.30;99.90
7212;DHT22;3647;48.792;9.802;2022-11-21T09:03:34;8.60;99.90
7212;DHT22;3647;48.792;9.802;2022-11-21T09:06:01;6.50;99.90
7212;DHT22;3647;48.792;9.802;2022-11-21T09:08:28;6.60;99.90
7212;DHT22;3647;48.792;9.802;2022-11-21T09:10:56;7.10;99.90
7212;DHT22;3647;48.792;9.802;2022-11-21T09:13:23;7.00;99.90
7212;DHT22;3647;48.792;9.802;2022-11-21T09:15:50;7.10;99.90
7212;DHT22;3647;48.792;9.802;2022-11-21T09:18:34;7.20;99.90
7212;DHT22;3647;48.792;9.802;2022-11-21T09:21:01;7.30;99.90
7212;DHT22;3647;48.792;9.802;2022-11-21T09:23:28;7.40;99.90
7212;DHT22;3647;48.792;9.802;2022-11-21T09:25:56;7.50;99.90
7212;DHT22;3647;48.792;9.802;2022-11-21T09:28:25;7.40;99.90
7212;DHT22;3647;48.792;9.802;2022-11-21T09:30:51;7.50;99.90
7212;DHT22;3647;48.792;9.802;2022-11-21T09:33:18;7.60;99.90
7212;DHT22;3647;48.792;9.802;2022-11-21T09:35:45;7.70;99.90
7212;DHT22;3647;48.792;9.802;2022-11-21T09:38:12;7.80;99.90
7212;DHT22;3647;48.792;9.802;2022-11-21T09:40:42;8.10;99.90
7212;DHT22;3647;48.792;9.802;2022-11-21T09:43:36;8.00;99.90
7212;DHT22;3647;48.792;9.802;2022-11-21T09:46:09;8.20;99.90
7212;DHT22;3647;48.792;9.802;2022-11-21T09:48:51;8.40;99.90
7212;DHT22;3647;48.792;9.802;2022-11-21T09:51:22;8.60;99.90
7212;DHT22;3647;48.792;9.802;2022-11-21T09:53:55;8.50;99.90
7212;DHT22;3647;48.792;9.802;2022-11-21T09:56:23;8.50;99.90
7212;DHT22;3647;48.792;9.802;2022-11-21T09:59:06;8.50;99.90
7212;DHT22;3647;48.792;9.802;2022-11-21T10:01:37;8.50;99.90
7212;DHT22;3647;48.792;9.802;2022-11-21T10:04:04;8.50;99.90
7212;DHT22;3647;48.792;9.802;2022-11-21T10:06:35;8.70;99.90
7212;DHT22;3647;48.792;9.802;2022-11-21T10:09:11;8.60;99.90
7212;DHT22;3647;48.792;9.802;2022-11-21T10:11:47;8.50;99.90
7212;DHT22;3647;48.792;9.802;2022-11-21T10:14:47;8.50;99.90
7212;DHT22;3647;48.792;9.802;2022-11-21T10:17:23;8.40;99.90
7212;DHT22;3647;48.792;9.802;2022-11-21T10:20:07;8.30;99.90
7212;DHT22;3647;48.792;9.802;2022-11-21T10:22:47;8.60;99.90
7212;DHT22;3647;48.792;9.802;2022-11-21T10:25:22;8.20;99.90
7212;DHT22;3647;48.792;9.802;2022-11-21T10:27:53;8.10;99.90
7212;DHT22;3647;48.792;9.802;2022-11-21T10:30:24;8.10;99.90
7212;DHT22;3647;48.792;9.802;2022-11-21T10:32:53;8.10;99.90
7212;DHT22;3647;48.792;9.802;2022-11-21T10:35:22;8.00;99.90
7212;DHT22;3647;48.792;9.802;2022-11-21T10:37:52;8.00;99.90
7212;DHT22;3647;48.792;9.802;2022-11-21T10:40:31;8.00;99.90
7212;DHT22;3647;48.792;9.802;2022-11-21T10:43:02;8.00;99.90
7212;DHT22;3647;48.792;9.802;2022-11-21T10:45:52;8.10;99.90
7212;DHT22;3647;48.792;9.802;2022-11-21T10:48:18;8.30;99.90
7212;DHT22;3647;48.792;9.802;2022-11-21T10:51:22;8.50;99.90
7212;DHT22;3647;48.792;9.802;2022-11-21T10:54:03;8.70;99.90
7212;DHT22;3647;48.792;9.802;2022-11-21T10:56:47;8.90;99.90
7212;DHT22;3647;48.792;9.802;2022-11-21T10:59:22;9.10;99.90
7212;DHT22;3647;48.792;9.802;2022-11-21T11:01:57;9.20;99.90
7212;DHT22;3647;48.792;9.802;2022-11-21T11:04:25;9.20;99.90
7212;DHT22;3647;48.792;9.802;2022-11-21T11:06:52;9.20;99.90
7212;DHT22;3647;48.792;9.802;2022-11-21T11:09:24;9.30;99.90
7212;DHT22;3647;48.792;9.802;2022-11-21T11:11:53;9.30;99.90
7212;DHT22;3647;48.792;9.802;2022-11-21T11:14:30;9.30;99.90
7212;DHT22;3647;48.792;9.802;2022-11-21T11:16:59;9.70;99.90
7212;DHT22;3647;48.792;9.802;2022-11-21T11:19:28;9.40;99.90
7212;DHT22;3647;48.792;9.802;2022-11-21T11:21:55;9.40;99.90
7212;DHT22;3647;48.792;9.802;2022-11-21T11:24:24;9.40;99.90
7212;DHT22;3647;48.792;9.802;2022-11-21T11:26:59;9.40;99.90
7212;DHT22;3647;48.792;9.802;2022-11-21T11:29:26;9.50;99.90
7212;DHT22;3647;48.792;9.802;2022-11-21T11:31:56;9.20;99.90
7212;DHT22;3647;48.792;9.802;2022-11-21T11:34:35;9.00;99.90
7212;DHT22;3647;48.792;9.802;2022-11-21T11:37:11;9.70;99.90
7212;DHT22;3647;48.792;9.802;2022-11-21T11:39:39;8.70;99.90
7212;DHT22;3647;48.792;9.802;2022-11-21T11:42:34;8.70;99.90
7212;DHT22;3647;48.792;9.802;2022-11-21T11:45:34;8.60;99.90
7212;DHT22;3647;48.792;9.802;2022-11-21T11:48:22;8.70;99.90
7212;DHT22;3647;48.792;9.802;2022-11-21T11:50:52;8.50;99.90
7212;DHT22;3647;48.792;9.802;2022-11-21T11:53:25;8.80;99.90
7212;DHT22;3647;48.792;9.802;2022-11-21T11:55:58;8.80;99.90
7212;DHT22;3647;48.792;9.802;2022-11-21T11:58:29;8.90;99.90
7212;DHT22;3647;48.792;9.802;2022-11-21T12:01:01;8.90;99.90
7212;DHT22;3647;48.792;9.802;2022-11-21T12:03:36;8.80;99.90
7212;DHT22;3647;48.792;9.802;2022-11-21T12:06:11;8.80;99.90
7212;DHT22;3647;48.792;9.802;2022-11-21T12:08:46;8.70;99.90
7212;DHT22;3647;48.792;9.802;2022-11-21T12:11:23;8.70;99.90
7212;DHT22;3647;48.792;9.802;2022-11-21T12:14:32;8.80;99.90
7212;DHT22;3647;48.792;9.802;2022-11-21T12:17:23;8.90;99.90
7212;DHT22;3647;48.792;9.802;2022-11-21T12:19:53;8.90;99.90
7212;DHT22;3647;48.792;9.802;2022-11-21T12:22:22;9.00;99.90
7212;DHT22;3647;48.792;9.802;2022-11-21T12:24:50;9.00;99.90
7212;DHT22;3647;48.792;9.802;2022-11-21T12:27:26;9.00;99.90
7212;DHT22;3647;48.792;9.802;2022-11-21T12:32:55;8.90;99.90
7212;DHT22;3647;48.792;9.802;2022-11-21T12:35:56;9.00;99.90
7212;DHT22;3647;48.792;9.802;2022-11-21T12:38:38;9.10;99.90
7212;DHT22;3647;48.792;9.802;2022-11-21T12:41:13;9.30;99.90
7212;DHT22;3647;48.792;9.802;2022-11-21T12:44:07;9.40;99.90
7212;DHT22;3647;48.792;9.802;2022-11-21T12:46:44;9.50;99.90
7212;DHT22;3647;48.792;9.802;2022-11-21T12:49:22;9.70;99.90
7212;DHT22;3647;48.792;9.802;2022-11-21T12:52:18;10.30;99.90
7212;DHT22;3647;48.792;9.802;2022-11-21T12:55:28;10.00;99.90
7212;DHT22;3647;48.792;9.802;2022-11-21T12:58:16;9.90;99.90
7212;DHT22;3647;48.792;9.802;2022-11-21T13:00:54;9.80;99.90
7212;DHT22;3647;48.792;9.802;2022-11-21T13:03:36;9.70;99.90
7212;DHT22;3647;48.792;9.802;2022-11-21T13:06:05;11.90;99.90
7212;DHT22;3647;48.792;9.802;2022-11-21T13:08:37;9.60;99.90
7212;DHT22;3647;48.792;9.802;2022-11-21T13:11:10;9.50;99.90
7212;DHT22;3647;48.792;9.802;2022-11-21T13:14:03;9.40;99.90
7212;DHT22;3647;48.792;9.802;2022-11-21T13:16:33;9.40;99.90
7212;DHT22;3647;48.792;9.802;2022-11-21T13:19:13;9.30;99.90
7212;DHT22;3647;48.792;9.802;2022-11-21T13:21:44;9.20;99.90
7212;DHT22;3647;48.792;9.802;2022-11-21T13:27:29;9.20;99.90
7212;DHT22;3647;48.792;9.802;2022-11-21T13:30:24;9.20;99.90
7212;DHT22;3647;48.792;9.802;2022-11-21T13:32:52;9.20;99.90
7212;DHT22;3647;48.792;9.802;2022-11-21T13:38:30;9.30;99.90
7212;DHT22;3647;48.792;9.802;2022-11-21T13:40:57;9.30;99.90
7212;DHT22;3647;48.792;9.802;2022-11-21T13:43:49;9.30;99.90
7212;DHT22;3647;48.792;9.802;2022-11-21T13:49:19;9.20;99.90
7212;DHT22;3647;48.792;9.802;2022-11-21T13:51:52;9.20;99.90
7212;DHT22;3647;48.792;9.802;2022-11-21T13:57:54;9.10;99.90
7212;DHT22;3647;48.792;9.802;2022-11-21T14:00:47;9.10;99.90
7212;DHT22;3647;48.792;9.802;2022-11-21T14:03:39;9.00;99.90
7212;DHT22;3647;48.792;9.802;2022-11-21T14:06:32;9.00;99.90
7212;DHT22;3647;48.792;9.802;2022-11-21T14:09:18;9.00;99.90
7212;DHT22;3647;48.792;9.802;2022-11-21T14:11:47;9.00;99.90
7212;DHT22;3647;48.792;9.802;2022-11-21T14:14:33;9.10;99.90
7212;DHT22;3647;48.792;9.802;2022-11-21T14:17:15;9.10;99.90
7212;DHT22;3647;48.792;9.802;2022-11-21T14:19:48;9.20;99.90
7212;DHT22;3647;48.792;9.802;2022-11-21T14:22:24;9.20;99.90
7212;DHT22;3647;48.792;9.802;2022-11-21T14:24:54;9.20;99.90
7212;DHT22;3647;48.792;9.802;2022-11-21T14:27:26;9.20;99.90
7212;DHT22;3647;48.792;9.802;2022-11-21T14:29:54;9.10;99.90
7212;DHT22;3647;48.792;9.802;2022-11-21T14:32:29;9.30;99.90
7212;DHT22;3647;48.792;9.802;2022-11-21T14:35:09;8.90;99.90
7212;DHT22;3647;48.792;9.802;2022-11-21T14:37:40;8.80;99.90
7212;DHT22;3647;48.792;9.802;2022-11-21T14:40:11;8.70;99.90
7212;DHT22;3647;48.792;9.802;2022-11-21T14:42:38;8.60;99.90
7212;DHT22;3647;48.792;9.802;2022-11-21T14:45:06;8.50;99.90
7212;DHT22;3647;48.792;9.802;2022-11-21T14:47:45;8.40;99.90
7212;DHT22;3647;48.792;9.802;2022-11-21T14:50:22;8.40;99.90
7212;DHT22;3647;48.792;9.802;2022-11-21T14:52:49;8.20;99.90
7212;DHT22;3647;48.792;9.802;2022-11-21T14:55:24;9.10;99.90
7212;DHT22;3647;48.792;9.802;2022-11-21T14:57:52;8.00;99.90
7212;DHT22;3647;48.792;9.802;2022-11-21T15:00:22;8.00;99.90
7212;DHT22;3647;48.792;9.802;2022-11-21T15:02:52;7.60;99.90
7212;DHT22;3647;48.792;9.802;2022-11-21T15:05:20;7.50;99.90
7212;DHT22;3647;48.792;9.802;2022-11-21T15:07:48;7.40;99.90
7212;DHT22;3647;48.792;9.802;2022-11-21T15:10:17;7.30;99.90
7212;DHT22;3647;48.792;9.802;2022-11-21T15:12:49;7.10;99.90
7212;DHT22;3647;48.792;9.802;2022-11-21T15:15:26;7.00;99.90
7212;DHT22;3647;48.792;9.802;2022-11-21T15:18:00;6.90;99.90
7212;DHT22;3647;48.792;9.802;2022-11-21T15:20:29;6.80;99.90
7212;DHT22;3647;48.792;9.802;2022-11-21T15:22:58;6.70;99.90
7212;DHT22;3647;48.792;9.802;2022-11-21T15:25:28;6.60;99.90
7212;DHT22;3647;48.792;9.802;2022-11-21T15:28:08;6.50;99.90
7212;DHT22;3647;48.792;9.802;2022-11-21T15:30:37;6.40;99.90
7212;DHT22;3647;48.792;9.802;2022-11-21T15:33:08;6.30;99.90
7212;DHT22;3647;48.792;9.802;2022-11-21T15:35:44;6.10;99.90
7212;DHT22;3647;48.792;9.802;2022-11-21T15:38:30;6.00;99.90
7212;DHT22;3647;48.792;9.802;2022-11-21T15:41:04;6.00;99.90
7212;DHT22;3647;48.792;9.802;2022-11-21T15:43:35;5.90;99.90
7212;DHT22;3647;48.792;9.802;2022-11-21T15:46:13;5.90;99.90
7212;DHT22;3647;48.792;9.802;2022-11-21T15:48:43;5.80;99.90
7212;DHT22;3647;48.792;9.802;2022-11-21T15:51:14;5.60;99.90
7212;DHT22;3647;48.792;9.802;2022-11-21T15:53:43;5.60;99.90
7212;DHT22;3647;48.792;9.802;2022-11-21T15:56:12;5.50;99.90
7212;DHT22;3647;48.792;9.802;2022-11-21T15:58:40;5.50;99.90
7212;DHT22;3647;48.792;9.802;2022-11-21T16:01:12;5.40;99.90
7212;DHT22;3647;48.792;9.802;2022-11-21T16:03:40;5.40;99.90
7212;DHT22;3647;48.792;9.802;2022-11-21T16:06:07;5.40;99.90
7212;DHT22;3647;48.792;9.802;2022-11-21T16:08:35;5.30;99.90
7212;DHT22;3647;48.792;9.802;2022-11-21T16:11:01;5.30;99.90
7212;DHT22;3647;48.792;9.802;2022-11-21T16:13:28;5.20;99.90
7212;DHT22;3647;48.792;9.802;2022-11-21T16:15:55;5.20;99.90
7212;DHT22;3647;48.792;9.802;2022-11-21T16:18:22;5.20;99.90
7212;DHT22;3647;48.792;9.802;2022-11-21T16:20:50;5.10;99.90
7212;DHT22;3647;48.792;9.802;2022-11-21T16:23:18;5.00;99.90
7212;DHT22;3647;48.792;9.802;2022-11-21T16:25:54;4.90;99.90
7212;DHT22;3647;48.792;9.802;2022-11-21T16:28:21;4.90;99.90
7212;DHT22;3647;48.792;9.802;2022-11-21T16:30:48;4.80;99.90
7212;DHT22;3647;48.792;9.802;2022-11-21T16:33:15;4.80;99.90
7212;DHT22;3647;48.792;9.802;2022-11-21T16:35:43;4.70;99.90
7212;DHT22;3647;48.792;9.802;2022-11-21T16:38:11;4.60;99.90
7212;DHT22;3647;48.792;9.802;2022-11-21T16:40:38;4.50;99.90
7212;DHT22;3647;48.792;9.802;2022-11-21T16:43:07;4.50;99.90
7212;DHT22;3647;48.792;9.802;2022-11-21T16:45:34;4.40;99.90
7212;DHT22;3647;48.792;9.802;2022-11-21T16:48:01;4.30;99.90
7212;DHT22;3647;48.792;9.802;2022-11-21T16:50:28;4.30;99.90
7212;DHT22;3647;48.792;9.802;2022-11-21T16:52:55;4.20;99.90
7212;DHT22;3647;48.792;9.802;2022-11-21T16:55:24;4.20;99.90
7212;DHT22;3647;48.792;9.802;2022-11-21T16:57:50;4.10;99.90
7212;DHT22;3647;48.792;9.802;2022-11-21T17:00:19;4.00;99.90
7212;DHT22;3647;48.792;9.802;2022-11-21T17:02:48;4.00;99.90
7212;DHT22;3647;48.792;9.802;2022-11-21T17:05:15;3.90;99.90
7212;DHT22;3647;48.792;9.802;2022-11-21T17:07:42;4.00;99.90
7212;DHT22;3647;48.792;9.802;2022-11-21T17:10:09;3.80;99.90
7212;DHT22;3647;48.792;9.802;2022-11-21T17:12:39;3.70;99.90
7212;DHT22;3647;48.792;9.802;2022-11-21T17:15:14;3.70;99.90
7212;DHT22;3647;48.792;9.802;2022-11-21T17:17:41;3.70;99.90
7212;DHT22;3647;48.792;9.802;2022-11-21T17:20:09;3.60;99.90
7212;DHT22;3647;48.792;9.802;2022-11-21T17:22:36;3.60;99.90
7212;DHT22;3647;48.792;9.802;2022-11-21T17:25:03;3.50;99.90
7212;DHT22;3647;48.792;9.802;2022-11-21T17:27:30;3.50;99.90
7212;DHT22;3647;48.792;9.802;2022-11-21T17:29:58;3.50;99.90
7212;DHT22;3647;48.792;9.802;2022-11-21T17:32:24;3.50;99.90
7212;DHT22;3647;48.792;9.802;2022-11-21T17:34:51;3.50;99.90
7212;DHT22;3647;48.792;9.802;2022-11-21T17:37:18;3.40;99.90
7212;DHT22;3647;48.792;9.802;2022-11-21T17:39:45;3.40;99.90
7212;DHT22;3647;48.792;9.802;2022-11-21T17:42:12;3.50;99.90
7212;DHT22;3647;48.792;9.802;2022-11-21T17:44:39;3.50;99.90
7212;DHT22;3647;48.792;9.802;2022-11-21T17:47:07;3.80;99.90
7212;DHT22;3647;48.792;9.802;2022-11-21T17:49:34;3.60;99.90
7212;DHT22;3647;48.792;9.802;2022-11-21T17:52:04;3.50;99.90
7212;DHT22;3647;48.792;9.802;2022-11-21T17:54:31;3.50;99.90
7212;DHT22;3647;48.792;9.802;2022-11-21T17:56:58;3.60;99.90
7212;DHT22;3647;48.792;9.802;2022-11-21T17:59:25;3.50;99.90
7212;DHT22;3647;48.792;9.802;2022-11-21T18:01:53;3.50;99.90
7212;DHT22;3647;48.792;9.802;2022-11-21T18:04:22;3.50;99.90
7212;DHT22;3647;48.792;9.802;2022-11-21T18:06:49;3.40;99.90
7212;DHT22;3647;48.792;9.802;2022-11-21T18:09:16;3.30;99.90
7212;DHT22;3647;48.792;9.802;2022-11-21T18:11:44;3.30;99.90
7212;DHT22;3647;48.792;9.802;2022-11-21T18:14:12;3.20;99.90
7212;DHT22;3647;48.792;9.802;2022-11-21T18:16:39;3.20;99.90
7212;DHT22;3647;48.792;9.802;2022-11-21T18:19:08;3.20;99.90
7212;DHT22;3647;48.792;9.802;2022-11-21T18:21:38;3.20;99.90
7212;DHT22;3647;48.792;9.802;2022-11-21T18:24:06;3.20;99.90
7212;DHT22;3647;48.792;9.802;2022-11-21T18:26:35;3.20;99.90
7212;DHT22;3647;48.792;9.802;2022-11-21T18:29:05;3.10;99.90
7212;DHT22;3647;48.792;9.802;2022-11-21T18:31:32;3.20;99.90
7212;DHT22;3647;48.792;9.802;2022-11-21T18:34:01;3.30;99.90
7212;DHT22;3647;48.792;9.802;2022-11-21T18:36:29;3.20;99.90
7212;DHT22;3647;48.792;9.802;2022-11-21T18:38:58;3.20;99.90
7212;DHT22;3647;48.792;9.802;2022-11-21T18:41:27;3.20;99.90
7212;DHT22;3647;48.792;9.802;2022-11-21T18:43:55;3.30;99.90
7212;DHT22;3647;48.792;9.802;2022-11-21T18:46:24;3.40;99.90
7212;DHT22;3647;48.792;9.802;2022-11-21T18:48:51;3.50;99.90
7212;DHT22;3647;48.792;9.802;2022-11-21T18:51:21;4.10;99.90
7212;DHT22;3647;48.792;9.802;2022-11-21T18:53:52;3.70;99.90
7212;DHT22;3647;48.792;9.802;2022-11-21T18:56:21;3.70;99.90
7212;DHT22;3647;48.792;9.802;2022-11-21T18:58:50;3.70;99.90
7212;DHT22;3647;48.792;9.802;2022-11-21T19:01:18;3.70;99.90
7212;DHT22;3647;48.792;9.802;2022-11-21T19:03:45;3.70;99.90
7212;DHT22;3647;48.792;9.802;2022-11-21T19:06:14;3.70;99.90
7212;DHT22;3647;48.792;9.802;2022-11-21T19:08:42;4.20;99.90
7212;DHT22;3647;48.792;9.802;2022-11-21T19:11:11;3.70;99.90
7212;DHT22;3647;48.792;9.802;2022-11-21T19:13:40;3.70;99.90
7212;DHT22;3647;48.792;9.802;2022-11-21T19:16:10;3.80;99.90
7212;DHT22;3647;48.792;9.802;2022-11-21T19:18:38;3.90;99.90
7212;DHT22;3647;48.792;9.802;2022-11-21T19:21:06;3.90;99.90
7212;DHT22;3647;48.792;9.802;2022-11-21T19:23:34;3.90;99.90
7212;DHT22;3647;48.792;9.802;2022-11-21T19:26:04;6.10;99.90
7212;DHT22;3647;48.792;9.802;2022-11-21T19:28:32;4.00;99.90
7212;DHT22;3647;48.792;9.802;2022-11-21T19:31:02;4.00;99.90
7212;DHT22;3647;48.792;9.802;2022-11-21T19:33:30;4.20;99.90
7212;DHT22;3647;48.792;9.802;2022-11-21T19:36:00;4.20;99.90
7212;DHT22;3647;48.792;9.802;2022-11-21T19:38:27;4.20;99.90
7212;DHT22;3647;48.792;9.802;2022-11-21T19:40:59;4.20;99.90
7212;DHT22;3647;48.792;9.802;2022-11-21T19:43:42;4.30;99.90
7212;DHT22;3647;48.792;9.802;2022-11-21T19:46:11;4.40;99.90
7212;DHT22;3647;48.792;9.802;2022-11-21T19:48:38;4.60;99.90
7212;DHT22;3647;48.792;9.802;2022-11-21T19:51:06;4.70;99.90
7212;DHT22;3647;48.792;9.802;2022-11-21T19:53:34;4.80;99.90
7212;DHT22;3647;48.792;9.802;2022-11-21T19:56:10;6.50;99.90
7212;DHT22;3647;48.792;9.802;2022-11-21T19:58:37;5.00;99.90
7212;DHT22;3647;48.792;9.802;2022-11-21T20:01:06;5.00;99.90
7212;DHT22;3647;48.792;9.802;2022-11-21T20:03:35;5.00;99.90
7212;DHT22;3647;48.792;9.802;2022-11-21T20:06:04;5.00;99.90
7212;DHT22;3647;48.792;9.802;2022-11-21T20:08:31;5.20;99.90
7212;DHT22;3647;48.792;9.802;2022-11-21T20:11:06;5.20;99.90
7212;DHT22;3647;48.792;9.802;2022-11-21T20:13:36;5.20;99.90
7212;DHT22;3647;48.792;9.802;2022-11-21T20:16:03;5.60;99.90
7212;DHT22;3647;48.792;9.802;2022-11-21T20:18:30;5.40;99.90
7212;DHT22;3647;48.792;9.802;2022-11-21T20:21:06;5.60;99.90
7212;DHT22;3647;48.792;9.802;2022-11-21T20:23:33;5.60;99.90
7212;DHT22;3647;48.792;9.802;2022-11-21T20:26:00;5.80;99.90
7212;DHT22;3647;48.792;9.802;2022-11-21T20:28:27;5.80;99.90
7212;DHT22;3647;48.792;9.802;2022-11-21T20:30:54;5.80;99.90
7212;DHT22;3647;48.792;9.802;2022-11-21T20:33:28;6.50;99.90
7212;DHT22;3647;48.792;9.802;2022-11-21T20:36:03;5.80;99.90
7212;DHT22;3647;48.792;9.802;2022-11-21T20:38:31;5.80;99.90
7212;DHT22;3647;48.792;9.802;2022-11-21T20:40:58;5.60;99.90
7212;DHT22;3647;48.792;9.802;2022-11-21T20:43:25;6.70;99.90
7212;DHT22;3647;48.792;9.802;2022-11-21T20:45:52;6.20;99.90
7212;DHT22;3647;48.792;9.802;2022-11-21T20:48:19;5.40;99.90
7212;DHT22;3647;48.792;9.802;2022-11-21T20:50:50;5.30;99.90
7212;DHT22;3647;48.792;9.802;2022-11-21T20:53:18;5.20;99.90
7212;DHT22;3647;48.792;9.802;2022-11-21T20:55:45;5.20;99.90
7212;DHT22;3647;48.792;9.802;2022-11-21T20:58:12;5.10;99.90
7212;DHT22;3647;48.792;9.802;2022-11-21T21:00:39;5.10;99.90
7212;DHT22;3647;48.792;9.802;2022-11-21T21:03:09;5.00;99.90
7212;DHT22;3647;48.792;9.802;2022-11-21T21:05:37;5.00;99.90
7212;DHT22;3647;48.792;9.802;2022-11-21T21:08:04;4.90;99.90
7212;DHT22;3647;48.792;9.802;2022-11-21T21:10:32;4.90;99.90
7212;DHT22;3647;48.792;9.802;2022-11-21T21:12:59;4.90;99.90
7212;DHT22;3647;48.792;9.802;2022-11-21T21:15:26;4.80;99.90
7212;DHT22;3647;48.792;9.802;2022-11-21T21:17:52;4.90;99.90
7212;DHT22;3647;48.792;9.802;2022-11-21T21:20:19;4.90;99.90
7212;DHT22;3647;48.792;9.802;2022-11-21T21:22:46;4.90;99.90
7212;DHT22;3647;48.792;9.802;2022-11-21T21:25:13;4.90;99.90
7212;DHT22;3647;48.792;9.802;2022-11-21T21:27:41;4.90;99.90
7212;DHT22;3647;48.792;9.802;2022-11-21T21:30:08;4.80;99.90
7212;DHT22;3647;48.792;9.802;2022-11-21T21:32:35;4.80;99.90
7212;DHT22;3647;48.792;9.802;2022-11-21T21:35:02;4.80;99.90
7212;DHT22;3647;48.792;9.802;2022-11-21T21:37:31;4.80;99.90
7212;DHT22;3647;48.792;9.802;2022-11-21T21:39:58;4.80;99.90
7212;DHT22;3647;48.792;9.802;2022-11-21T21:42:25;4.80;99.90
7212;DHT22;3647;48.792;9.802;2022-11-21T21:44:53;4.80;99.90
7212;DHT22;3647;48.792;9.802;2022-11-21T21:47:20;4.80;99.90
7212;DHT22;3647;48.792;9.802;2022-11-21T21:49:46;4.90;99.90
7212;DHT22;3647;48.792;9.802;2022-11-21T21:52:13;5.10;99.90
7212;DHT22;3647;48.792;9.802;2022-11-21T21:54:40;7.40;99.90
7212;DHT22;3647;48.792;9.802;2022-11-21T21:57:07;5.50;99.90
7212;DHT22;3647;48.792;9.802;2022-11-21T21:59:34;5.50;99.90
7212;DHT22;3647;48.792;9.802;2022-11-21T22:02:02;5.60;99.90
7212;DHT22;3647;48.792;9.802;2022-11-21T22:04:29;6.40;99.90
7212;DHT22;3647;48.792;9.802;2022-11-21T22:06:58;5.70;99.90
7212;DHT22;3647;48.792;9.802;2022-11-21T22:09:25;5.70;99.90
7212;DHT22;3647;48.792;9.802;2022-11-21T22:11:51;5.80;99.90
7212;DHT22;3647;48.792;9.802;2022-11-21T22:14:19;6.00;99.90
7212;DHT22;3647;48.792;9.802;2022-11-21T22:16:46;6.10;99.90
7212;DHT22;3647;48.792;9.802;2022-11-21T22:19:14;6.20;99.90
7212;DHT22;3647;48.792;9.802;2022-11-21T22:21:42;6.30;99.90
7212;DHT22;3647;48.792;9.802;2022-11-21T22:24:11;6.30;99.90
7212;DHT22;3647;48.792;9.802;2022-11-21T22:26:38;6.40;99.90
7212;DHT22;3647;48.792;9.802;2022-11-21T22:29:05;6.50;99.90
7212;DHT22;3647;48.792;9.802;2022-11-21T22:31:32;6.50;99.90
7212;DHT22;3647;48.792;9.802;2022-11-21T22:33:59;6.40;99.90
7212;DHT22;3647;48.792;9.802;2022-11-21T22:36:28;6.30;99.90
7212;DHT22;3647;48.792;9.802;2022-11-21T22:38:55;6.30;99.90
7212;DHT22;3647;48.792;9.802;2022-11-21T22:41:23;6.20;99.90
7212;DHT22;3647;48.792;9.802;2022-11-21T22:43:51;6.20;99.90
7212;DHT22;3647;48.792;9.802;2022-11-21T22:46:19;6.10;99.90
7212;DHT22;3647;48.792;9.802;2022-11-21T22:48:46;6.10;99.90
7212;DHT22;3647;48.792;9.802;2022-11-21T22:51:14;6.10;99.90
7212;DHT22;3647;48.792;9.802;2022-11-21T22:53:44;8.30;99.90
7212;DHT22;3647;48.792;9.802;2022-11-21T22:56:11;6.10;99.90
7212;DHT22;3647;48.792;9.802;2022-11-21T22:58:39;6.00;99.90
7212;DHT22;3647;48.792;9.802;2022-11-21T23:01:07;6.40;99.90
7212;DHT22;3647;48.792;9.802;2022-11-21T23:03:35;6.00;99.90
7212;DHT22;3647;48.792;9.802;2022-11-21T23:06:02;6.00;99.90
7212;DHT22;3647;48.792;9.802;2022-11-21T23:08:30;6.00;99.90
7212;DHT22;3647;48.792;9.802;2022-11-21T23:11:06;6.00;99.90
7212;DHT22;3647;48.792;9.802;2022-11-21T23:13:34;6.10;99.90
7212;DHT22;3647;48.792;9.802;2022-11-21T23:16:02;6.00;99.90
7212;DHT22;3647;48.792;9.802;2022-11-21T23:18:28;7.50;99.90
7212;DHT22;3647;48.792;9.802;2022-11-21T23:20:56;6.00;99.90
7212;DHT22;3647;48.792;9.802;2022-11-21T23:23:22;6.00;99.90
7212;DHT22;3647;48.792;9.802;2022-11-21T23:25:50;6.00;99.90
7212;DHT22;3647;48.792;9.802;2022-11-21T23:28:18;6.10;99.90
7212;DHT22;3647;48.792;9.802;2022-11-21T23:30:47;6.00;99.90
7212;DHT22;3647;48.792;9.802;2022-11-21T23:33:14;6.00;99.90
7212;DHT22;3647;48.792;9.802;2022-11-21T23:35:41;6.00;99.90
7212;DHT22;3647;48.792;9.802;2022-11-21T23:38:08;5.90;99.90
